sensor_id;sensor_type;location;lat;lon;timestamp;temperature;humidity
14739;DHT22;7461;52.440;13.540;2023-03-30T00:00:40;9.20;99.90
14739;DHT22;7461;52.440;13.540;2023-03-30T00:03:08;9.20;99.90
14739;DHT22;7461;52.440;13.540;2023-03-30T00:05:35;9.20;99.90
14739;DHT22;7461;52.440;13.540;2023-03-30T00:08:03;9.20;99.90
14739;DHT22;7461;52.440;13.540;2023-03-30T00:10:31;9.10;99.90
14739;DHT22;7461;52.440;13.540;2023-03-30T00:12:58;9.10;99.90
14739;DHT22;7461;52.440;13.540;2023-03-30T00:15:26;9.20;99.90
14739;DHT22;7461;52.440;13.540;2023-03-30T00:17:53;9.20;99.90
14739;DHT22;7461;52.440;13.540;2023-03-30T00:20:21;9.20;99.90
14739;DHT22;7461;52.440;13.540;2023-03-30T00:22:48;9.20;99.90
14739;DHT22;7461;52.440;13.540;2023-03-30T00:25:16;9.20;99.90
14739;DHT22;7461;52.440;13.540;2023-03-30T00:27:44;9.10;99.90
14739;DHT22;7461;52.440;13.540;2023-03-30T00:30:14;9.20;99.90
14739;DHT22;7461;52.440;13.540;2023-03-30T00:32:41;9.10;99.90
14739;DHT22;7461;52.440;13.540;2023-03-30T00:35:09;9.10;99.90
14739;DHT22;7461;52.440;13.540;2023-03-30T00:37:37;9.10;99.90
14739;DHT22;7461;52.440;13.540;2023-03-30T00:40:06;9.00;99.90
14739;DHT22;7461;52.440;13.540;2023-03-30T00:42:34;9.00;99.90
14739;DHT22;7461;52.440;13.540;2023-03-30T00:45:21;9.00;99.90
14739;DHT22;7461;52.440;13.540;2023-03-30T00:48:00;8.90;99.90
14739;DHT22;7461;52.440;13.540;2023-03-30T00:50:32;8.90;99.90
14739;DHT22;7461;52.440;13.540;2023-03-30T00:53:06;8.90;99.90
14739;DHT22;7461;52.440;13.540;2023-03-30T00:55:36;8.80;99.90
14739;DHT22;7461;52.440;13.540;2023-03-30T00:58:06;8.80;99.90
14739;DHT22;7461;52.440;13.540;2023-03-30T01:00:37;8.70;99.90
14739;DHT22;7461;52.440;13.540;2023-03-30T01:03:09;8.70;99.90
14739;DHT22;7461;52.440;13.540;2023-03-30T01:05:41;8.70;99.90
14739;DHT22;7461;52.440;13.540;2023-03-30T01:08:10;8.70;99.90
14739;DHT22;7461;52.440;13.540;2023-03-30T01:10:38;8.60;99.90
14739;DHT22;7461;52.440;13.540;2023-03-30T01:13:05;8.60;99.90
14739;DHT22;7461;52.440;13.540;2023-03-30T01:15:35;8.60;99.90
14739;DHT22;7461;52.440;13.540;2023-03-30T01:18:15;8.60;99.90
14739;DHT22;7461;52.440;13.540;2023-03-30T01:24:17;8.60;99.90
14739;DHT22;7461;52.440;13.540;2023-03-30T01:26:52;8.60;99.90
14739;DHT22;7461;52.440;13.540;2023-03-30T01:29:47;8.60;99.90
14739;DHT22;7461;52.440;13.540;2023-03-30T01:32:53;8.60;99.90
14739;DHT22;7461;52.440;13.540;2023-03-30T01:35:52;8.60;99.90
14739;DHT22;7461;52.440;13.540;2023-03-30T01:38:55;8.60;99.90
14739;DHT22;7461;52.440;13.540;2023-03-30T01:41:27;8.60;99.90
14739;DHT22;7461;52.440;13.540;2023-03-30T01:44:03;8.60;99.90
14739;DHT22;7461;52.440;13.540;2023-03-30T01:46:37;8.60;99.90
14739;DHT22;7461;52.440;13.540;2023-03-30T01:49:12;8.60;99.90
14739;DHT22;7461;52.440;13.540;2023-03-30T01:51:45;8.60;99.90
14739;DHT22;7461;52.440;13.540;2023-03-30T01:54:19;8.60;99.90
14739;DHT22;7461;52.440;13.540;2023-03-30T01:56:49;8.60;99.90
14739;DHT22;7461;52.440;13.540;2023-03-30T01:59:20;8.60;99.90
14739;DHT22;7461;52.440;13.540;2023-03-30T02:01:53;8.50;99.90
14739;DHT22;7461;52.440;13.540;2023-03-30T02:04:26;8.60;99.90
14739;DHT22;7461;52.440;13.540;2023-03-30T02:06:57;8.60;99.90
14739;DHT22;7461;52.440;13.540;2023-03-30T02:09:26;8.60;99.90
14739;DHT22;7461;52.440;13.540;2023-03-30T02:11:55;8.60;99.90
14739;DHT22;7461;52.440;13.540;2023-03-30T02:14:26;8.60;99.90
14739;DHT22;7461;52.440;13.540;2023-03-30T02:16:57;8.60;99.90
14739;DHT22;7461;52.440;13.540;2023-03-30T02:19:26;8.60;99.90
14739;DHT22;7461;52.440;13.540;2023-03-30T02:21:54;8.60;99.90
14739;DHT22;7461;52.440;13.540;2023-03-30T02:24:26;8.60;99.90
14739;DHT22;7461;52.440;13.540;2023-03-30T02:26:58;8.60;99.90
14739;DHT22;7461;52.440;13.540;2023-03-30T02:29:27;8.60;99.90
14739;DHT22;7461;52.440;13.540;2023-03-30T02:31:56;8.60;99.90
14739;DHT22;7461;52.440;13.540;2023-03-30T02:34:38;8.60;99.90
14739;DHT22;7461;52.440;13.540;2023-03-30T02:37:24;8.60;99.90
14739;DHT22;7461;52.440;13.540;2023-03-30T02:40:08;8.60;99.90
14739;DHT22;7461;52.440;13.540;2023-03-30T02:42:48;8.60;99.90
14739;DHT22;7461;52.440;13.540;2023-03-30T02:45:28;8.60;99.90
14739;DHT22;7461;52.440;13.540;2023-03-30T02:48:06;8.60;99.90
14739;DHT22;7461;52.440;13.540;2023-03-30T02:50:44;8.60;99.90
14739;DHT22;7461;52.440;13.540;2023-03-30T02:53:17;8.60;99.90
14739;DHT22;7461;52.440;13.540;2023-03-30T02:55:56;8.60;99.90
14739;DHT22;7461;52.440;13.540;2023-03-30T02:58:33;8.50;99.90
14739;DHT22;7461;52.440;13.540;2023-03-30T03:01:05;8.50;99.90
14739;DHT22;7461;52.440;13.540;2023-03-30T03:03:38;8.50;99.90
14739;DHT22;7461;52.440;13.540;2023-03-30T03:06:07;8.50;99.90
14739;DHT22;7461;52.440;13.540;2023-03-30T03:08:37;8.50;99.90
14739;DHT22;7461;52.440;13.540;2023-03-30T03:11:07;8.60;99.90
14739;DHT22;7461;52.440;13.540;2023-03-30T03:13:35;8.50;99.90
14739;DHT22;7461;52.440;13.540;2023-03-30T03:16:02;8.60;99.90
14739;DHT22;7461;52.440;13.540;2023-03-30T03:18:29;8.60;99.90
14739;DHT22;7461;52.440;13.540;2023-03-30T03:20:57;8.60;99.90
14739;DHT22;7461;52.440;13.540;2023-03-30T03:23:24;8.60;99.90
14739;DHT22;7461;52.440;13.540;2023-03-30T03:25:51;8.60;99.90
14739;DHT22;7461;52.440;13.540;2023-03-30T03:28:19;8.60;99.90
14739;DHT22;7461;52.440;13.540;2023-03-30T03:30:47;8.60;99.90
14739;DHT22;7461;52.440;13.540;2023-03-30T03:33:14;8.60;99.90
14739;DHT22;7461;52.440;13.540;2023-03-30T03:35:41;8.60;99.90
14739;DHT22;7461;52.440;13.540;2023-03-30T03:38:10;8.60;99.90
14739;DHT22;7461;52.440;13.540;2023-03-30T03:40:37;8.60;99.90
14739;DHT22;7461;52.440;13.540;2023-03-30T03:43:04;8.70;99.90
14739;DHT22;7461;52.440;13.540;2023-03-30T03:45:33;8.70;99.90
14739;DHT22;7461;52.440;13.540;2023-03-30T03:48:00;8.70;99.90
14739;DHT22;7461;52.440;13.540;2023-03-30T03:50:26;8.60;99.90
14739;DHT22;7461;52.440;13.540;2023-03-30T03:52:53;8.60;99.90
14739;DHT22;7461;52.440;13.540;2023-03-30T03:55:20;8.70;99.90
14739;DHT22;7461;52.440;13.540;2023-03-30T03:57:48;8.60;99.90
14739;DHT22;7461;52.440;13.540;2023-03-30T04:00:15;8.70;99.90
14739;DHT22;7461;52.440;13.540;2023-03-30T04:02:44;8.70;99.90
14739;DHT22;7461;52.440;13.540;2023-03-30T04:05:11;8.70;99.90
14739;DHT22;7461;52.440;13.540;2023-03-30T04:07:38;8.60;99.90
14739;DHT22;7461;52.440;13.540;2023-03-30T04:10:06;8.70;99.90
14739;DHT22;7461;52.440;13.540;2023-03-30T04:12:33;8.70;99.90
14739;DHT22;7461;52.440;13.540;2023-03-30T04:15:00;8.70;99.90
14739;DHT22;7461;52.440;13.540;2023-03-30T04:17:27;8.70;99.90
14739;DHT22;7461;52.440;13.540;2023-03-30T04:19:59;8.70;99.90
14739;DHT22;7461;52.440;13.540;2023-03-30T04:22:29;8.70;99.90
14739;DHT22;7461;52.440;13.540;2023-03-30T04:24:57;8.70;99.90
14739;DHT22;7461;52.440;13.540;2023-03-30T04:27:25;8.70;99.90
14739;DHT22;7461;52.440;13.540;2023-03-30T04:29:53;8.80;99.90
14739;DHT22;7461;52.440;13.540;2023-03-30T04:32:22;8.70;99.90
14739;DHT22;7461;52.440;13.540;2023-03-30T04:34:49;8.70;99.90
14739;DHT22;7461;52.440;13.540;2023-03-30T04:37:20;8.70;99.90
14739;DHT22;7461;52.440;13.540;2023-03-30T04:39:54;8.70;99.90
14739;DHT22;7461;52.440;13.540;2023-03-30T04:42:22;8.70;99.90
14739;DHT22;7461;52.440;13.540;2023-03-30T04:44:55;8.70;99.90
14739;DHT22;7461;52.440;13.540;2023-03-30T04:47:22;8.80;99.90
14739;DHT22;7461;52.440;13.540;2023-03-30T04:49:48;8.80;99.90
14739;DHT22;7461;52.440;13.540;2023-03-30T04:52:16;8.80;99.90
14739;DHT22;7461;52.440;13.540;2023-03-30T04:54:44;8.80;99.90
14739;DHT22;7461;52.440;13.540;2023-03-30T04:57:11;8.80;99.90
14739;DHT22;7461;52.440;13.540;2023-03-30T04:59:39;8.90;99.90
14739;DHT22;7461;52.440;13.540;2023-03-30T05:02:06;8.90;99.90
14739;DHT22;7461;52.440;13.540;2023-03-30T05:04:33;8.80;99.90
14739;DHT22;7461;52.440;13.540;2023-03-30T05:07:00;8.80;99.90
14739;DHT22;7461;52.440;13.540;2023-03-30T05:09:27;8.90;99.90
14739;DHT22;7461;52.440;13.540;2023-03-30T05:11:56;8.90;99.90
14739;DHT22;7461;52.440;13.540;2023-03-30T05:14:23;8.90;99.90
14739;DHT22;7461;52.440;13.540;2023-03-30T05:16:50;8.90;99.90
14739;DHT22;7461;52.440;13.540;2023-03-30T05:19:17;8.90;99.90
14739;DHT22;7461;52.440;13.540;2023-03-30T05:21:44;8.90;99.90
14739;DHT22;7461;52.440;13.540;2023-03-30T05:24:12;9.00;99.90
14739;DHT22;7461;52.440;13.540;2023-03-30T05:26:39;9.00;99.90
14739;DHT22;7461;52.440;13.540;2023-03-30T05:29:07;9.00;99.90
14739;DHT22;7461;52.440;13.540;2023-03-30T05:31:34;9.00;99.90
14739;DHT22;7461;52.440;13.540;2023-03-30T05:34:01;9.00;99.90
14739;DHT22;7461;52.440;13.540;2023-03-30T05:36:28;9.00;99.90
14739;DHT22;7461;52.440;13.540;2023-03-30T05:38:55;9.10;99.90
14739;DHT22;7461;52.440;13.540;2023-03-30T05:41:22;9.10;99.90
14739;DHT22;7461;52.440;13.540;2023-03-30T05:43:49;9.10;99.90
14739;DHT22;7461;52.440;13.540;2023-03-30T05:46:18;9.10;99.90
14739;DHT22;7461;52.440;13.540;2023-03-30T05:48:45;9.10;99.90
14739;DHT22;7461;52.440;13.540;2023-03-30T05:51:12;9.20;99.90
14739;DHT22;7461;52.440;13.540;2023-03-30T05:53:39;9.10;99.90
14739;DHT22;7461;52.440;13.540;2023-03-30T05:56:07;9.10;99.90
14739;DHT22;7461;52.440;13.540;2023-03-30T05:58:35;9.20;99.90
14739;DHT22;7461;52.440;13.540;2023-03-30T06:01:03;9.20;99.90
14739;DHT22;7461;52.440;13.540;2023-03-30T06:03:31;9.20;99.90
14739;DHT22;7461;52.440;13.540;2023-03-30T06:05:58;9.20;99.90
14739;DHT22;7461;52.440;13.540;2023-03-30T06:08:25;9.20;99.90
14739;DHT22;7461;52.440;13.540;2023-03-30T06:10:53;9.20;99.90
14739;DHT22;7461;52.440;13.540;2023-03-30T06:13:20;9.30;99.90
14739;DHT22;7461;52.440;13.540;2023-03-30T06:15:47;9.20;99.90
14739;DHT22;7461;52.440;13.540;2023-03-30T06:18:14;9.30;99.90
14739;DHT22;7461;52.440;13.540;2023-03-30T06:20:45;9.30;99.90
14739;DHT22;7461;52.440;13.540;2023-03-30T06:23:12;9.30;99.90
14739;DHT22;7461;52.440;13.540;2023-03-30T06:25:39;9.30;99.90
14739;DHT22;7461;52.440;13.540;2023-03-30T06:28:06;9.30;99.90
14739;DHT22;7461;52.440;13.540;2023-03-30T06:30:33;9.40;99.90
14739;DHT22;7461;52.440;13.540;2023-03-30T06:33:00;9.40;99.90
14739;DHT22;7461;52.440;13.540;2023-03-30T06:35:27;9.40;99.90
14739;DHT22;7461;52.440;13.540;2023-03-30T06:37:55;9.40;99.90
14739;DHT22;7461;52.440;13.540;2023-03-30T06:40:22;9.50;99.90
14739;DHT22;7461;52.440;13.540;2023-03-30T06:42:49;9.50;99.90
14739;DHT22;7461;52.440;13.540;2023-03-30T06:45:16;9.50;99.90
14739;DHT22;7461;52.440;13.540;2023-03-30T06:47:43;9.60;99.90
14739;DHT22;7461;52.440;13.540;2023-03-30T06:50:10;9.60;99.90
14739;DHT22;7461;52.440;13.540;2023-03-30T06:52:37;9.60;99.90
14739;DHT22;7461;52.440;13.540;2023-03-30T06:55:06;9.70;99.90
14739;DHT22;7461;52.440;13.540;2023-03-30T06:57:34;9.70;99.90
14739;DHT22;7461;52.440;13.540;2023-03-30T07:00:01;9.70;99.90
14739;DHT22;7461;52.440;13.540;2023-03-30T07:02:33;9.80;99.90
14739;DHT22;7461;52.440;13.540;2023-03-30T07:05:00;9.80;99.90
14739;DHT22;7461;52.440;13.540;2023-03-30T07:07:28;9.80;99.90
14739;DHT22;7461;52.440;13.540;2023-03-30T07:09:55;9.90;99.90
14739;DHT22;7461;52.440;13.540;2023-03-30T07:12:23;9.90;99.90
14739;DHT22;7461;52.440;13.540;2023-03-30T07:14:50;9.90;99.90
14739;DHT22;7461;52.440;13.540;2023-03-30T07:17:18;10.00;99.90
14739;DHT22;7461;52.440;13.540;2023-03-30T07:19:46;10.00;99.90
14739;DHT22;7461;52.440;13.540;2023-03-30T07:22:13;10.10;99.90
14739;DHT22;7461;52.440;13.540;2023-03-30T07:24:40;10.10;99.90
14739;DHT22;7461;52.440;13.540;2023-03-30T07:27:07;10.20;99.90
14739;DHT22;7461;52.440;13.540;2023-03-30T07:29:35;10.20;99.90
14739;DHT22;7461;52.440;13.540;2023-03-30T07:32:03;10.30;99.90
14739;DHT22;7461;52.440;13.540;2023-03-30T07:34:30;10.40;99.90
14739;DHT22;7461;52.440;13.540;2023-03-30T07:36:58;10.40;99.90
14739;DHT22;7461;52.440;13.540;2023-03-30T07:39:26;10.40;99.90
14739;DHT22;7461;52.440;13.540;2023-03-30T07:41:53;10.50;99.90
14739;DHT22;7461;52.440;13.540;2023-03-30T07:44:20;10.60;99.90
14739;DHT22;7461;52.440;13.540;2023-03-30T07:46:49;10.60;99.90
14739;DHT22;7461;52.440;13.540;2023-03-30T07:49:17;10.70;99.90
14739;DHT22;7461;52.440;13.540;2023-03-30T07:51:44;10.90;99.90
14739;DHT22;7461;52.440;13.540;2023-03-30T07:54:11;11.00;99.90
14739;DHT22;7461;52.440;13.540;2023-03-30T07:56:39;11.10;99.90
14739;DHT22;7461;52.440;13.540;2023-03-30T07:59:09;11.20;99.90
14739;DHT22;7461;52.440;13.540;2023-03-30T08:01:40;11.30;99.90
14739;DHT22;7461;52.440;13.540;2023-03-30T08:04:09;11.40;99.90
14739;DHT22;7461;52.440;13.540;2023-03-30T08:06:36;11.50;99.90
14739;DHT22;7461;52.440;13.540;2023-03-30T08:09:03;11.60;99.90
14739;DHT22;7461;52.440;13.540;2023-03-30T08:11:31;11.80;99.90
14739;DHT22;7461;52.440;13.540;2023-03-30T08:14:00;11.90;99.90
14739;DHT22;7461;52.440;13.540;2023-03-30T08:16:27;12.00;99.90
14739;DHT22;7461;52.440;13.540;2023-03-30T08:18:54;12.10;99.90
14739;DHT22;7461;52.440;13.540;2023-03-30T08:21:23;12.20;99.90
14739;DHT22;7461;52.440;13.540;2023-03-30T08:23:50;12.30;99.90
14739;DHT22;7461;52.440;13.540;2023-03-30T08:26:17;12.50;99.90
14739;DHT22;7461;52.440;13.540;2023-03-30T08:28:45;12.60;99.90
14739;DHT22;7461;52.440;13.540;2023-03-30T08:31:11;12.70;99.90
14739;DHT22;7461;52.440;13.540;2023-03-30T08:33:38;12.80;99.90
14739;DHT22;7461;52.440;13.540;2023-03-30T08:36:06;12.90;99.90
14739;DHT22;7461;52.440;13.540;2023-03-30T08:38:34;13.00;99.90
14739;DHT22;7461;52.440;13.540;2023-03-30T08:41:08;13.20;99.90
14739;DHT22;7461;52.440;13.540;2023-03-30T08:43:45;13.50;99.90
14739;DHT22;7461;52.440;13.540;2023-03-30T08:46:16;13.80;99.90
14739;DHT22;7461;52.440;13.540;2023-03-30T08:48:44;14.00;99.90
14739;DHT22;7461;52.440;13.540;2023-03-30T08:51:19;14.20;99.90
14739;DHT22;7461;52.440;13.540;2023-03-30T08:53:51;14.40;99.90
14739;DHT22;7461;52.440;13.540;2023-03-30T08:56:20;14.60;99.90
14739;DHT22;7461;52.440;13.540;2023-03-30T08:58:55;14.70;99.90
14739;DHT22;7461;52.440;13.540;2023-03-30T09:01:29;14.80;99.90
14739;DHT22;7461;52.440;13.540;2023-03-30T09:04:11;14.90;99.90
14739;DHT22;7461;52.440;13.540;2023-03-30T09:06:46;14.90;99.90
14739;DHT22;7461;52.440;13.540;2023-03-30T09:09:18;14.90;99.90
14739;DHT22;7461;52.440;13.540;2023-03-30T09:11:50;15.00;99.90
14739;DHT22;7461;52.440;13.540;2023-03-30T09:14:26;15.10;99.90
14739;DHT22;7461;52.440;13.540;2023-03-30T09:16:59;15.10;99.90
14739;DHT22;7461;52.440;13.540;2023-03-30T09:19:33;15.10;99.90
14739;DHT22;7461;52.440;13.540;2023-03-30T09:22:01;15.00;99.90
14739;DHT22;7461;52.440;13.540;2023-03-30T09:24:31;14.90;99.90
14739;DHT22;7461;52.440;13.540;2023-03-30T09:27:02;14.90;99.90
14739;DHT22;7461;52.440;13.540;2023-03-30T09:29:36;14.90;99.90
14739;DHT22;7461;52.440;13.540;2023-03-30T09:32:12;14.90;99.90
14739;DHT22;7461;52.440;13.540;2023-03-30T09:34:44;15.00;99.90
14739;DHT22;7461;52.440;13.540;2023-03-30T09:37:13;15.00;99.90
14739;DHT22;7461;52.440;13.540;2023-03-30T09:39:45;15.00;99.90
14739;DHT22;7461;52.440;13.540;2023-03-30T09:42:20;15.10;99.90
14739;DHT22;7461;52.440;13.540;2023-03-30T09:44:51;15.10;99.90
14739;DHT22;7461;52.440;13.540;2023-03-30T09:47:24;15.10;99.90
14739;DHT22;7461;52.440;13.540;2023-03-30T09:49:55;15.10;99.90
14739;DHT22;7461;52.440;13.540;2023-03-30T09:52:24;15.20;99.90
14739;DHT22;7461;52.440;13.540;2023-03-30T09:54:53;15.20;99.90
14739;DHT22;7461;52.440;13.540;2023-03-30T09:57:26;15.10;99.90
14739;DHT22;7461;52.440;13.540;2023-03-30T09:59:53;15.10;99.90
14739;DHT22;7461;52.440;13.540;2023-03-30T10:02:22;15.10;99.90
14739;DHT22;7461;52.440;13.540;2023-03-30T10:05:01;15.10;99.90
14739;DHT22;7461;52.440;13.540;2023-03-30T10:07:31;15.10;99.90
14739;DHT22;7461;52.440;13.540;2023-03-30T10:10:10;15.10;99.90
14739;DHT22;7461;52.440;13.540;2023-03-30T10:12:38;15.00;99.90
14739;DHT22;7461;52.440;13.540;2023-03-30T10:15:09;15.10;99.90
14739;DHT22;7461;52.440;13.540;2023-03-30T10:17:40;15.00;99.90
14739;DHT22;7461;52.440;13.540;2023-03-30T10:20:26;15.00;99.90
14739;DHT22;7461;52.440;13.540;2023-03-30T10:22:55;15.00;99.90
14739;DHT22;7461;52.440;13.540;2023-03-30T10:25:26;14.90;99.90
14739;DHT22;7461;52.440;13.540;2023-03-30T10:27:55;14.90;99.90
14739;DHT22;7461;52.440;13.540;2023-03-30T10:30:24;14.90;99.90
14739;DHT22;7461;52.440;13.540;2023-03-30T10:32:54;14.80;99.90
14739;DHT22;7461;52.440;13.540;2023-03-30T10:35:24;14.80;99.90
14739;DHT22;7461;52.440;13.540;2023-03-30T10:37:53;14.80;99.90
14739;DHT22;7461;52.440;13.540;2023-03-30T10:40:25;14.70;99.90
14739;DHT22;7461;52.440;13.540;2023-03-30T10:42:54;14.70;99.90
14739;DHT22;7461;52.440;13.540;2023-03-30T10:45:27;14.70;99.90
14739;DHT22;7461;52.440;13.540;2023-03-30T10:48:15;14.70;99.90
14739;DHT22;7461;52.440;13.540;2023-03-30T10:50:50;14.70;99.90
14739;DHT22;7461;52.440;13.540;2023-03-30T10:53:30;14.70;99.90
14739;DHT22;7461;52.440;13.540;2023-03-30T10:56:07;14.70;99.90
14739;DHT22;7461;52.440;13.540;2023-03-30T10:58:51;14.80;99.90
14739;DHT22;7461;52.440;13.540;2023-03-30T11:01:25;14.80;99.90
14739;DHT22;7461;52.440;13.540;2023-03-30T11:03:59;14.80;99.90
14739;DHT22;7461;52.440;13.540;2023-03-30T11:06:30;14.90;99.90
14739;DHT22;7461;52.440;13.540;2023-03-30T11:09:00;15.00;99.90
14739;DHT22;7461;52.440;13.540;2023-03-30T11:11:33;15.00;99.90
14739;DHT22;7461;52.440;13.540;2023-03-30T11:14:06;15.10;99.90
14739;DHT22;7461;52.440;13.540;2023-03-30T11:16:38;15.20;99.90
14739;DHT22;7461;52.440;13.540;2023-03-30T11:19:13;15.20;99.90
14739;DHT22;7461;52.440;13.540;2023-03-30T11:21:48;15.20;99.90
14739;DHT22;7461;52.440;13.540;2023-03-30T11:24:20;15.20;99.90
14739;DHT22;7461;52.440;13.540;2023-03-30T11:26:54;15.30;99.90
14739;DHT22;7461;52.440;13.540;2023-03-30T11:29:29;15.30;99.90
14739;DHT22;7461;52.440;13.540;2023-03-30T11:34:52;15.40;99.90
14739;DHT22;7461;52.440;13.540;2023-03-30T11:37:26;15.40;99.90
14739;DHT22;7461;52.440;13.540;2023-03-30T11:39:58;15.40;99.90
14739;DHT22;7461;52.440;13.540;2023-03-30T11:42:36;15.50;99.90
14739;DHT22;7461;52.440;13.540;2023-03-30T11:45:11;15.50;99.90
14739;DHT22;7461;52.440;13.540;2023-03-30T11:47:55;15.50;99.90
14739;DHT22;7461;52.440;13.540;2023-03-30T11:50:40;15.60;99.90
14739;DHT22;7461;52.440;13.540;2023-03-30T11:53:20;15.60;99.90
14739;DHT22;7461;52.440;13.540;2023-03-30T11:56:03;15.70;99.90
14739;DHT22;7461;52.440;13.540;2023-03-30T11:58:36;15.70;99.90
14739;DHT22;7461;52.440;13.540;2023-03-30T12:01:27;15.90;99.90
14739;DHT22;7461;52.440;13.540;2023-03-30T12:04:01;16.10;99.90
14739;DHT22;7461;52.440;13.540;2023-03-30T12:06:31;16.20;99.90
14739;DHT22;7461;52.440;13.540;2023-03-30T12:09:10;16.30;99.90
14739;DHT22;7461;52.440;13.540;2023-03-30T12:11:45;16.30;99.90
14739;DHT22;7461;52.440;13.540;2023-03-30T12:14:29;16.30;99.90
14739;DHT22;7461;52.440;13.540;2023-03-30T12:17:03;16.50;99.90
14739;DHT22;7461;52.440;13.540;2023-03-30T12:19:41;16.70;99.90
14739;DHT22;7461;52.440;13.540;2023-03-30T12:22:22;16.90;99.90
14739;DHT22;7461;52.440;13.540;2023-03-30T12:24:56;17.00;99.90
14739;DHT22;7461;52.440;13.540;2023-03-30T12:27:26;17.20;99.90
14739;DHT22;7461;52.440;13.540;2023-03-30T12:30:10;17.30;99.90
14739;DHT22;7461;52.440;13.540;2023-03-30T12:32:56;17.40;99.90
14739;DHT22;7461;52.440;13.540;2023-03-30T12:35:56;17.50;99.90
14739;DHT22;7461;52.440;13.540;2023-03-30T12:38:25;17.50;99.90
14739;DHT22;7461;52.440;13.540;2023-03-30T12:41:10;17.50;99.90
14739;DHT22;7461;52.440;13.540;2023-03-30T12:44:09;17.60;99.90
14739;DHT22;7461;52.440;13.540;2023-03-30T12:46:51;17.70;99.90
14739;DHT22;7461;52.440;13.540;2023-03-30T12:49:32;17.80;99.90
14739;DHT22;7461;52.440;13.540;2023-03-30T12:52:06;17.90;99.90
14739;DHT22;7461;52.440;13.540;2023-03-30T12:54:58;17.90;99.90
14739;DHT22;7461;52.440;13.540;2023-03-30T12:57:38;18.00;99.90
14739;DHT22;7461;52.440;13.540;2023-03-30T13:00:41;18.10;99.90
14739;DHT22;7461;52.440;13.540;2023-03-30T13:03:32;18.20;99.90
14739;DHT22;7461;52.440;13.540;2023-03-30T13:06:02;18.20;99.90
14739;DHT22;7461;52.440;13.540;2023-03-30T13:08:34;18.20;99.90
14739;DHT22;7461;52.440;13.540;2023-03-30T13:11:07;18.30;99.90
14739;DHT22;7461;52.440;13.540;2023-03-30T13:13:47;18.30;99.90
14739;DHT22;7461;52.440;13.540;2023-03-30T13:19:24;18.50;99.90
14739;DHT22;7461;52.440;13.540;2023-03-30T13:21:56;18.60;99.90
14739;DHT22;7461;52.440;13.540;2023-03-30T13:24:31;18.60;99.90
14739;DHT22;7461;52.440;13.540;2023-03-30T13:27:23;18.60;99.90
14739;DHT22;7461;52.440;13.540;2023-03-30T13:29:54;18.40;99.90
14739;DHT22;7461;52.440;13.540;2023-03-30T13:32:30;18.40;99.90
14739;DHT22;7461;52.440;13.540;2023-03-30T13:35:15;18.40;99.90
14739;DHT22;7461;52.440;13.540;2023-03-30T13:38:06;18.30;99.90
14739;DHT22;7461;52.440;13.540;2023-03-30T13:40:41;18.40;99.90
14739;DHT22;7461;52.440;13.540;2023-03-30T13:43:17;18.40;99.90
14739;DHT22;7461;52.440;13.540;2023-03-30T13:45:51;18.40;99.90
14739;DHT22;7461;52.440;13.540;2023-03-30T13:48:30;18.40;99.90
14739;DHT22;7461;52.440;13.540;2023-03-30T13:51:02;18.30;99.90
14739;DHT22;7461;52.440;13.540;2023-03-30T13:53:34;18.40;99.90
14739;DHT22;7461;52.440;13.540;2023-03-30T13:56:06;18.30;99.90
14739;DHT22;7461;52.440;13.540;2023-03-30T13:58:35;18.20;99.90
14739;DHT22;7461;52.440;13.540;2023-03-30T14:01:07;18.20;99.90
14739;DHT22;7461;52.440;13.540;2023-03-30T14:03:38;18.10;99.90
14739;DHT22;7461;52.440;13.540;2023-03-30T14:06:15;18.00;99.90
14739;DHT22;7461;52.440;13.540;2023-03-30T14:08:43;17.90;99.90
14739;DHT22;7461;52.440;13.540;2023-03-30T14:11:15;17.80;99.90
14739;DHT22;7461;52.440;13.540;2023-03-30T14:13:44;17.60;99.90
14739;DHT22;7461;52.440;13.540;2023-03-30T14:16:18;16.80;99.90
14739;DHT22;7461;52.440;13.540;2023-03-30T14:18:46;15.80;99.90
14739;DHT22;7461;52.440;13.540;2023-03-30T14:21:17;15.10;99.90
14739;DHT22;7461;52.440;13.540;2023-03-30T14:23:48;14.50;99.90
14739;DHT22;7461;52.440;13.540;2023-03-30T14:26:18;14.00;99.90
14739;DHT22;7461;52.440;13.540;2023-03-30T14:29:14;13.70;99.90
14739;DHT22;7461;52.440;13.540;2023-03-30T14:31:43;13.40;99.90
14739;DHT22;7461;52.440;13.540;2023-03-30T14:34:25;13.30;99.90
14739;DHT22;7461;52.440;13.540;2023-03-30T14:36:54;13.20;99.90
14739;DHT22;7461;52.440;13.540;2023-03-30T14:39:22;13.00;99.90
14739;DHT22;7461;52.440;13.540;2023-03-30T14:41:49;12.90;99.90
14739;DHT22;7461;52.440;13.540;2023-03-30T14:44:20;12.80;99.90
14739;DHT22;7461;52.440;13.540;2023-03-30T14:46:49;12.70;99.90
14739;DHT22;7461;52.440;13.540;2023-03-30T14:49:19;12.60;99.90
14739;DHT22;7461;52.440;13.540;2023-03-30T14:51:47;12.50;99.90
14739;DHT22;7461;52.440;13.540;2023-03-30T14:54:18;12.50;99.90
14739;DHT22;7461;52.440;13.540;2023-03-30T14:56:52;12.50;99.90
14739;DHT22;7461;52.440;13.540;2023-03-30T14:59:22;12.40;99.90
14739;DHT22;7461;52.440;13.540;2023-03-30T15:01:50;12.40;99.90
14739;DHT22;7461;52.440;13.540;2023-03-30T15:04:18;12.40;99.90
14739;DHT22;7461;52.440;13.540;2023-03-30T15:06:46;12.30;99.90
14739;DHT22;7461;52.440;13.540;2023-03-30T15:09:17;12.30;99.90
14739;DHT22;7461;52.440;13.540;2023-03-30T15:11:46;12.30;99.90
14739;DHT22;7461;52.440;13.540;2023-03-30T15:14:17;12.30;99.90
14739;DHT22;7461;52.440;13.540;2023-03-30T15:16:47;12.30;99.90
14739;DHT22;7461;52.440;13.540;2023-03-30T15:19:27;12.20;99.90
14739;DHT22;7461;52.440;13.540;2023-03-30T15:21:57;12.20;99.90
14739;DHT22;7461;52.440;13.540;2023-03-30T15:24:49;12.10;99.90
14739;DHT22;7461;52.440;13.540;2023-03-30T15:27:16;12.20;99.90
14739;DHT22;7461;52.440;13.540;2023-03-30T15:29:44;12.10;99.90
14739;DHT22;7461;52.440;13.540;2023-03-30T15:32:17;12.10;99.90
14739;DHT22;7461;52.440;13.540;2023-03-30T15:35:00;12.00;99.90
14739;DHT22;7461;52.440;13.540;2023-03-30T15:37:28;12.00;99.90
14739;DHT22;7461;52.440;13.540;2023-03-30T15:39:58;11.90;99.90
14739;DHT22;7461;52.440;13.540;2023-03-30T15:42:33;11.90;99.90
14739;DHT22;7461;52.440;13.540;2023-03-30T15:45:08;11.70;99.90
14739;DHT22;7461;52.440;13.540;2023-03-30T15:47:36;11.70;99.90
14739;DHT22;7461;52.440;13.540;2023-03-30T15:50:14;11.60;99.90
14739;DHT22;7461;52.440;13.540;2023-03-30T15:52:48;11.60;99.90
14739;DHT22;7461;52.440;13.540;2023-03-30T15:55:34;11.50;99.90
14739;DHT22;7461;52.440;13.540;2023-03-30T15:58:12;11.50;99.90
14739;DHT22;7461;52.440;13.540;2023-03-30T16:00:43;11.50;99.90
14739;DHT22;7461;52.440;13.540;2023-03-30T16:03:36;11.50;99.90
14739;DHT22;7461;52.440;13.540;2023-03-30T16:06:12;11.40;99.90
14739;DHT22;7461;52.440;13.540;2023-03-30T16:08:41;11.50;99.90
14739;DHT22;7461;52.440;13.540;2023-03-30T16:11:13;11.40;99.90
14739;DHT22;7461;52.440;13.540;2023-03-30T16:13:46;11.40;99.90
14739;DHT22;7461;52.440;13.540;2023-03-30T16:16:16;11.40;99.90